VOZ830 YSSY-YMML
Flight info
| Callsign | VOZ830 |
|---|---|
| Flight time | 1h 11m |
| Altitude | 36000 |
| Route | WOL DCT CB DCT BOYSE |
| Aircraft | B738/M-SDE3FGIRWZH/LB1 |
Departure
| Time | 2026-05-06 22:45 |
|---|---|
| Airport | Sydney Kingsford Smith International Airport (YSSY) |
Arrival
| Time | 2026-05-06 23:56 |
|---|---|
| Airport | Melbourne Airport (YMML) |
| Time | Latitude | Longitude | Altitude | Speed | Heading |
|---|---|---|---|---|---|
| 2026-05-06 22:19 | -33.93523 | 151.17920 | 29 ft | 0 kts | 100° |
| 2026-05-06 22:35 | -33.93522 | 151.17914 | 29 ft | 4 kts | 99° |
| 2026-05-06 22:35 | -33.93518 | 151.17882 | 29 ft | 4 kts | 101° |
| 2026-05-06 22:35 | -33.93510 | 151.17852 | 29 ft | 4 kts | 131° |
| 2026-05-06 22:35 | -33.93499 | 151.17844 | 29 ft | 1 kts | 190° |
| 2026-05-06 22:36 | -33.93525 | 151.17838 | 29 ft | 4 kts | 190° |
| 2026-05-06 22:36 | -33.93552 | 151.17833 | 29 ft | 4 kts | 190° |
| 2026-05-06 22:36 | -33.93578 | 151.17827 | 29 ft | 4 kts | 190° |
| 2026-05-06 22:36 | -33.93604 | 151.17822 | 29 ft | 3 kts | 190° |
| 2026-05-06 22:37 | -33.93607 | 151.17821 | 29 ft | 0 kts | 190° |
| 2026-05-06 22:39 | -33.93612 | 151.17820 | 29 ft | 3 kts | 190° |
| 2026-05-06 22:39 | -33.93657 | 151.17810 | 29 ft | 9 kts | 193° |
| 2026-05-06 22:39 | -33.93718 | 151.17790 | 29 ft | 9 kts | 194° |
| 2026-05-06 22:39 | -33.93779 | 151.17772 | 29 ft | 9 kts | 194° |
| 2026-05-06 22:40 | -33.93847 | 151.17765 | 29 ft | 12 kts | 173° |
| 2026-05-06 22:40 | -33.93942 | 151.17789 | 28 ft | 16 kts | 167° |
| 2026-05-06 22:40 | -33.94064 | 151.17821 | 28 ft | 19 kts | 168° |
| 2026-05-06 22:40 | -33.94190 | 151.17854 | 29 ft | 18 kts | 168° |
| 2026-05-06 22:41 | -33.94423 | 151.17912 | 29 ft | 13 kts | 174° |
| 2026-05-06 22:41 | -33.94507 | 151.17882 | 29 ft | 13 kts | 185° |
| 2026-05-06 22:41 | -33.94595 | 151.17899 | 28 ft | 13 kts | 168° |
| 2026-05-06 22:42 | -33.94687 | 151.17924 | 29 ft | 15 kts | 168° |
| 2026-05-06 22:42 | -33.94805 | 151.17954 | 29 ft | 18 kts | 168° |
| 2026-05-06 22:42 | -33.94926 | 151.17985 | 29 ft | 17 kts | 167° |
| 2026-05-06 22:42 | -33.95037 | 151.18015 | 29 ft | 13 kts | 168° |
| 2026-05-06 22:43 | -33.95112 | 151.18034 | 29 ft | 11 kts | 168° |
| 2026-05-06 22:43 | -33.95181 | 151.18027 | 29 ft | 10 kts | 224° |
| 2026-05-06 22:43 | -33.95202 | 151.17948 | 29 ft | 10 kts | 258° |
| 2026-05-06 22:43 | -33.95218 | 151.17859 | 29 ft | 12 kts | 256° |
| 2026-05-06 22:44 | -33.95202 | 151.17759 | 28 ft | 15 kts | 321° |
| 2026-05-06 22:44 | -33.95023 | 151.17700 | 27 ft | 53 kts | 348° |
| 2026-05-06 22:44 | -33.94427 | 151.17547 | 29 ft | 119 kts | 348° |
| 2026-05-06 22:44 | -33.93454 | 151.17298 | 175 ft | 158 kts | 347° |
| 2026-05-06 22:45 | -33.92372 | 151.17028 | 891 ft | 162 kts | 344° |
| 2026-05-06 22:45 | -33.91346 | 151.16440 | 1462 ft | 167 kts | 307° |
| 2026-05-06 22:45 | -33.90741 | 151.15228 | 2076 ft | 177 kts | 294° |
| 2026-05-06 22:45 | -33.90093 | 151.13845 | 2377 ft | 201 kts | 296° |
| 2026-05-06 22:46 | -33.89352 | 151.12349 | 2710 ft | 217 kts | 296° |
| 2026-05-06 22:46 | -33.88525 | 151.10739 | 3037 ft | 236 kts | 297° |
| 2026-05-06 22:46 | -33.87638 | 151.09055 | 3836 ft | 238 kts | 298° |
| 2026-05-06 22:46 | -33.86747 | 151.07385 | 4769 ft | 236 kts | 298° |
| 2026-05-06 22:47 | -33.85855 | 151.05721 | 5615 ft | 238 kts | 298° |
| 2026-05-06 22:47 | -33.84941 | 151.04015 | 6288 ft | 246 kts | 299° |
| 2026-05-06 22:47 | -33.84025 | 151.02300 | 7178 ft | 241 kts | 296° |
| 2026-05-06 22:47 | -33.83488 | 151.00398 | 7884 ft | 242 kts | 277° |
| 2026-05-06 22:48 | -33.83629 | 150.98398 | 8552 ft | 251 kts | 252° |
| 2026-05-06 22:48 | -33.84594 | 150.96594 | 9257 ft | 267 kts | 231° |
| 2026-05-06 22:48 | -33.86192 | 150.95301 | 9863 ft | 290 kts | 208° |
| 2026-05-06 22:48 | -33.88238 | 150.94830 | 10356 ft | 314 kts | 186° |
| 2026-05-06 22:49 | -33.90519 | 150.95253 | 10525 ft | 346 kts | 171° |
| 2026-05-06 22:49 | -33.92920 | 150.96002 | 10720 ft | 366 kts | 171° |
| 2026-05-06 22:49 | -33.95437 | 150.96747 | 11170 ft | 375 kts | 172° |
| 2026-05-06 22:49 | -33.97997 | 150.97398 | 11832 ft | 375 kts | 180° |
| 2026-05-06 22:50 | -34.00544 | 150.97151 | 12520 ft | 363 kts | 200° |
| 2026-05-06 22:50 | -34.02956 | 150.96380 | 13257 ft | 364 kts | 202° |
| 2026-05-06 22:50 | -34.05416 | 150.95556 | 13965 ft | 368 kts | 203° |
| 2026-05-06 22:50 | -34.07896 | 150.94722 | 14629 ft | 373 kts | 203° |
| 2026-05-06 22:51 | -34.10418 | 150.93879 | 15216 ft | 379 kts | 203° |
| 2026-05-06 22:51 | -34.12977 | 150.93034 | 15860 ft | 383 kts | 203° |
| 2026-05-06 22:51 | -34.15565 | 150.92188 | 16542 ft | 387 kts | 203° |
| 2026-05-06 22:51 | -34.18177 | 150.91338 | 17157 ft | 391 kts | 203° |
| 2026-05-06 22:52 | -34.20828 | 150.90477 | 17790 ft | 396 kts | 203° |
| 2026-05-06 22:52 | -34.23472 | 150.89619 | 18392 ft | 401 kts | 203° |
| 2026-05-06 22:52 | -34.26183 | 150.88740 | 18930 ft | 405 kts | 203° |
| 2026-05-06 22:52 | -34.28906 | 150.87858 | 19507 ft | 408 kts | 203° |
| 2026-05-06 22:53 | -34.31677 | 150.86957 | 19957 ft | 414 kts | 203° |
| 2026-05-06 22:53 | -34.34477 | 150.86046 | 20515 ft | 418 kts | 204° |
| 2026-05-06 22:53 | -34.37293 | 150.85132 | 21083 ft | 420 kts | 204° |
| 2026-05-06 22:53 | -34.40134 | 150.84209 | 21616 ft | 423 kts | 204° |
| 2026-05-06 22:54 | -34.42957 | 150.83290 | 22102 ft | 426 kts | 204° |
| 2026-05-06 22:54 | -34.45842 | 150.82349 | 22597 ft | 430 kts | 204° |
| 2026-05-06 22:54 | -34.48744 | 150.81402 | 23138 ft | 434 kts | 204° |
| 2026-05-06 22:54 | -34.51696 | 150.80434 | 23392 ft | 443 kts | 205° |
| 2026-05-06 22:55 | -34.54501 | 150.79023 | 23708 ft | 427 kts | 223° |
| 2026-05-06 22:55 | -34.56709 | 150.76747 | 24232 ft | 406 kts | 238° |
| 2026-05-06 22:55 | -34.58277 | 150.74052 | 24689 ft | 391 kts | 250° |
| 2026-05-06 22:55 | -34.59624 | 150.71149 | 25001 ft | 395 kts | 251° |
| 2026-05-06 22:56 | -34.60952 | 150.68204 | 25366 ft | 398 kts | 251° |
| 2026-05-06 22:56 | -34.62283 | 150.65242 | 25792 ft | 399 kts | 251° |
| 2026-05-06 22:56 | -34.63606 | 150.62312 | 26233 ft | 401 kts | 251° |
| 2026-05-06 22:56 | -34.64965 | 150.59320 | 26581 ft | 404 kts | 251° |
| 2026-05-06 22:57 | -34.66334 | 150.56326 | 26978 ft | 405 kts | 251° |
| 2026-05-06 22:57 | -34.67712 | 150.53321 | 27386 ft | 407 kts | 251° |
| 2026-05-06 22:57 | -34.69098 | 150.50306 | 27760 ft | 408 kts | 251° |
| 2026-05-06 22:57 | -34.70486 | 150.47287 | 28119 ft | 410 kts | 251° |
| 2026-05-06 22:58 | -34.71866 | 150.44280 | 28438 ft | 413 kts | 251° |
| 2026-05-06 22:58 | -34.73268 | 150.41225 | 28779 ft | 414 kts | 251° |
| 2026-05-06 22:58 | -34.74677 | 150.38156 | 29136 ft | 415 kts | 251° |
| 2026-05-06 22:58 | -34.76087 | 150.35084 | 29606 ft | 414 kts | 252° |
| 2026-05-06 22:59 | -34.77489 | 150.32030 | 30161 ft | 411 kts | 252° |
| 2026-05-06 22:59 | -34.78862 | 150.29038 | 30686 ft | 407 kts | 252° |
| 2026-05-06 22:59 | -34.80239 | 150.26033 | 31168 ft | 405 kts | 252° |
| 2026-05-06 22:59 | -34.81608 | 150.23037 | 31551 ft | 403 kts | 252° |
| 2026-05-06 23:00 | -34.82509 | 150.21061 | 31824 ft | 402 kts | 252° |
| 2026-05-06 23:00 | -34.83864 | 150.18092 | 32297 ft | 398 kts | 252° |
| 2026-05-06 23:00 | -34.85208 | 150.15143 | 32754 ft | 395 kts | 251° |
| 2026-05-06 23:00 | -34.86539 | 150.12217 | 33128 ft | 394 kts | 251° |
| 2026-05-06 23:01 | -34.87848 | 150.09336 | 33471 ft | 392 kts | 251° |
| 2026-05-06 23:01 | -34.89172 | 150.06419 | 33832 ft | 391 kts | 250° |
| 2026-05-06 23:01 | -34.90485 | 150.03524 | 34158 ft | 390 kts | 250° |
| 2026-05-06 23:01 | -34.91798 | 150.00628 | 34422 ft | 389 kts | 250° |
| 2026-05-06 23:02 | -34.93107 | 149.97735 | 34636 ft | 390 kts | 250° |
| 2026-05-06 23:02 | -34.94423 | 149.94822 | 34791 ft | 395 kts | 250° |
| 2026-05-06 23:02 | -34.95757 | 149.91864 | 34894 ft | 399 kts | 250° |
| 2026-05-06 23:02 | -34.97079 | 149.88941 | 35162 ft | 397 kts | 250° |
| 2026-05-06 23:03 | -34.98415 | 149.85986 | 35397 ft | 397 kts | 249° |
| 2026-05-06 23:03 | -34.99748 | 149.83037 | 35618 ft | 397 kts | 248° |
| 2026-05-06 23:03 | -35.01081 | 149.80082 | 35824 ft | 398 kts | 248° |
| 2026-05-06 23:03 | -35.02418 | 149.77115 | 36017 ft | 398 kts | 248° |
| 2026-05-06 23:04 | -35.03757 | 149.74139 | 36044 ft | 402 kts | 248° |
| 2026-05-06 23:04 | -35.06458 | 149.68127 | 36068 ft | 403 kts | 248° |
| 2026-05-06 23:05 | -35.09135 | 149.62169 | 36073 ft | 402 kts | 249° |
| 2026-05-06 23:05 | -35.11820 | 149.56175 | 36099 ft | 401 kts | 248° |
| 2026-05-06 23:06 | -35.14493 | 149.50198 | 36075 ft | 400 kts | 248° |
| 2026-05-06 23:06 | -35.17156 | 149.44234 | 36074 ft | 399 kts | 248° |
| 2026-05-06 23:07 | -35.19810 | 149.38276 | 36057 ft | 399 kts | 248° |
| 2026-05-06 23:07 | -35.22468 | 149.32300 | 36065 ft | 400 kts | 248° |
| 2026-05-06 23:08 | -35.25127 | 149.26311 | 36053 ft | 401 kts | 248° |
| 2026-05-06 23:08 | -35.27777 | 149.20343 | 36050 ft | 403 kts | 247° |
| 2026-05-06 23:09 | -35.30976 | 149.14597 | 36052 ft | 410 kts | 240° |
| 2026-05-06 23:09 | -35.34394 | 149.09022 | 36051 ft | 412 kts | 240° |
| 2026-05-06 23:10 | -35.37851 | 149.03359 | 36101 ft | 415 kts | 240° |
| 2026-05-06 23:10 | -35.41269 | 148.97697 | 36101 ft | 415 kts | 240° |
| 2026-05-06 23:11 | -35.44693 | 148.91989 | 36107 ft | 415 kts | 240° |
| 2026-05-06 23:11 | -35.48104 | 148.86286 | 36098 ft | 413 kts | 240° |
| 2026-05-06 23:12 | -35.51504 | 148.80588 | 36126 ft | 414 kts | 240° |
| 2026-05-06 23:12 | -35.54881 | 148.74921 | 36106 ft | 413 kts | 239° |
| 2026-05-06 23:13 | -35.58281 | 148.69205 | 36122 ft | 412 kts | 239° |
| 2026-05-06 23:13 | -35.61664 | 148.63511 | 36123 ft | 412 kts | 239° |
| 2026-05-06 23:14 | -35.65038 | 148.57821 | 36162 ft | 411 kts | 239° |
| 2026-05-06 23:14 | -35.68392 | 148.52155 | 36149 ft | 411 kts | 239° |
| 2026-05-06 23:15 | -35.71746 | 148.46479 | 36142 ft | 412 kts | 238° |
| 2026-05-06 23:15 | -35.75118 | 148.40766 | 36157 ft | 412 kts | 238° |
| 2026-05-06 23:16 | -35.78501 | 148.35023 | 36195 ft | 413 kts | 238° |
| 2026-05-06 23:16 | -35.81863 | 148.29306 | 36167 ft | 414 kts | 238° |
| 2026-05-06 23:17 | -35.85243 | 148.23549 | 36177 ft | 415 kts | 238° |
| 2026-05-06 23:17 | -35.88632 | 148.17769 | 36157 ft | 415 kts | 237° |
| 2026-05-06 23:18 | -35.91997 | 148.12020 | 36174 ft | 414 kts | 237° |
| 2026-05-06 23:18 | -35.95374 | 148.06239 | 36181 ft | 415 kts | 237° |
| 2026-05-06 23:19 | -35.98732 | 148.00482 | 36171 ft | 415 kts | 237° |
| 2026-05-06 23:19 | -36.02109 | 147.94683 | 36173 ft | 415 kts | 237° |
| 2026-05-06 23:20 | -36.05478 | 147.88889 | 36165 ft | 414 kts | 237° |
| 2026-05-06 23:20 | -36.08834 | 147.83106 | 36170 ft | 413 kts | 237° |
| 2026-05-06 23:21 | -36.12168 | 147.77352 | 36175 ft | 412 kts | 237° |
| 2026-05-06 23:21 | -36.15502 | 147.71586 | 36165 ft | 411 kts | 237° |
| 2026-05-06 23:22 | -36.18804 | 147.65868 | 36176 ft | 410 kts | 237° |
| 2026-05-06 23:22 | -36.22130 | 147.60098 | 36177 ft | 410 kts | 236° |
| 2026-05-06 23:23 | -36.25439 | 147.54348 | 36182 ft | 409 kts | 236° |
| 2026-05-06 23:23 | -36.28743 | 147.48597 | 36184 ft | 409 kts | 236° |
| 2026-05-06 23:24 | -36.32022 | 147.42881 | 36177 ft | 409 kts | 236° |
| 2026-05-06 23:24 | -36.35328 | 147.37106 | 36174 ft | 409 kts | 236° |
| 2026-05-06 23:25 | -36.38609 | 147.31367 | 36172 ft | 409 kts | 236° |
| 2026-05-06 23:25 | -36.41906 | 147.25590 | 36183 ft | 409 kts | 236° |
| 2026-05-06 23:26 | -36.45172 | 147.19858 | 36186 ft | 408 kts | 236° |
| 2026-05-06 23:26 | -36.48456 | 147.14083 | 36204 ft | 409 kts | 236° |
| 2026-05-06 23:27 | -36.51739 | 147.08302 | 36190 ft | 409 kts | 235° |
| 2026-05-06 23:27 | -36.54938 | 147.02658 | 36071 ft | 388 kts | 235° |
| 2026-05-06 23:27 | -36.56482 | 146.99932 | 35752 ft | 383 kts | 235° |
| 2026-05-06 23:28 | -36.57992 | 146.97263 | 35315 ft | 381 kts | 235° |
| 2026-05-06 23:28 | -36.59514 | 146.94568 | 34909 ft | 380 kts | 234° |
| 2026-05-06 23:28 | -36.61036 | 146.91874 | 34581 ft | 376 kts | 234° |
| 2026-05-06 23:28 | -36.62538 | 146.89212 | 34205 ft | 374 kts | 234° |
| 2026-05-06 23:29 | -36.64012 | 146.86598 | 33752 ft | 372 kts | 234° |
| 2026-05-06 23:29 | -36.65490 | 146.83974 | 33354 ft | 369 kts | 233° |
| 2026-05-06 23:29 | -36.66965 | 146.81353 | 32833 ft | 368 kts | 233° |
| 2026-05-06 23:29 | -36.68430 | 146.78749 | 32334 ft | 366 kts | 232° |
| 2026-05-06 23:30 | -36.69894 | 146.76144 | 31857 ft | 365 kts | 232° |
| 2026-05-06 23:30 | -36.71335 | 146.73579 | 31375 ft | 364 kts | 231° |
| 2026-05-06 23:30 | -36.72789 | 146.70988 | 30919 ft | 364 kts | 231° |
| 2026-05-06 23:30 | -36.74239 | 146.68405 | 30450 ft | 363 kts | 231° |
| 2026-05-06 23:31 | -36.75687 | 146.65820 | 29923 ft | 362 kts | 229° |
| 2026-05-06 23:31 | -36.77110 | 146.63278 | 29371 ft | 360 kts | 229° |
| 2026-05-06 23:31 | -36.78542 | 146.60719 | 28818 ft | 358 kts | 229° |
| 2026-05-06 23:31 | -36.79962 | 146.58178 | 28284 ft | 356 kts | 229° |
| 2026-05-06 23:32 | -36.81375 | 146.55649 | 27746 ft | 353 kts | 229° |
| 2026-05-06 23:32 | -36.82771 | 146.53146 | 27300 ft | 350 kts | 229° |
| 2026-05-06 23:32 | -36.84162 | 146.50652 | 26918 ft | 345 kts | 228° |
| 2026-05-06 23:32 | -36.85506 | 146.48238 | 26540 ft | 340 kts | 228° |
| 2026-05-06 23:33 | -36.86852 | 146.45819 | 26156 ft | 336 kts | 228° |
| 2026-05-06 23:33 | -36.88180 | 146.43433 | 25783 ft | 331 kts | 227° |
| 2026-05-06 23:33 | -36.89489 | 146.41079 | 25419 ft | 327 kts | 227° |
| 2026-05-06 23:33 | -36.90777 | 146.38764 | 25058 ft | 323 kts | 227° |
| 2026-05-06 23:34 | -36.92036 | 146.36497 | 24712 ft | 320 kts | 226° |
| 2026-05-06 23:34 | -36.93300 | 146.34221 | 24355 ft | 316 kts | 226° |
| 2026-05-06 23:34 | -36.94551 | 146.31966 | 24009 ft | 313 kts | 226° |
| 2026-05-06 23:34 | -36.95789 | 146.29733 | 23571 ft | 310 kts | 225° |
| 2026-05-06 23:35 | -36.97008 | 146.27533 | 23237 ft | 304 kts | 225° |
| 2026-05-06 23:35 | -36.98200 | 146.25378 | 22956 ft | 299 kts | 225° |
| 2026-05-06 23:35 | -36.99374 | 146.23255 | 22672 ft | 294 kts | 225° |
| 2026-05-06 23:35 | -37.00516 | 146.21189 | 22405 ft | 289 kts | 225° |
| 2026-05-06 23:36 | -37.01647 | 146.19142 | 22110 ft | 283 kts | 225° |
| 2026-05-06 23:36 | -37.02758 | 146.17131 | 21847 ft | 278 kts | 225° |
| 2026-05-06 23:36 | -37.03852 | 146.15150 | 21576 ft | 274 kts | 225° |
| 2026-05-06 23:36 | -37.04934 | 146.13194 | 21319 ft | 272 kts | 226° |
| 2026-05-06 23:37 | -37.06011 | 146.11244 | 21058 ft | 271 kts | 226° |
| 2026-05-06 23:37 | -37.07080 | 146.09309 | 20798 ft | 269 kts | 226° |
| 2026-05-06 23:37 | -37.08151 | 146.07369 | 20537 ft | 272 kts | 227° |
| 2026-05-06 23:37 | -37.09235 | 146.05407 | 20299 ft | 277 kts | 227° |
| 2026-05-06 23:38 | -37.10323 | 146.03436 | 20027 ft | 278 kts | 227° |
| 2026-05-06 23:38 | -37.11417 | 146.01444 | 19767 ft | 276 kts | 227° |
| 2026-05-06 23:38 | -37.12505 | 145.99460 | 19489 ft | 275 kts | 227° |
| 2026-05-06 23:38 | -37.13576 | 145.97509 | 19136 ft | 274 kts | 228° |
| 2026-05-06 23:39 | -37.14660 | 145.95535 | 18774 ft | 274 kts | 228° |
| 2026-05-06 23:39 | -37.15742 | 145.93562 | 18394 ft | 273 kts | 229° |
| 2026-05-06 23:39 | -37.16816 | 145.91603 | 17985 ft | 274 kts | 229° |
| 2026-05-06 23:39 | -37.17897 | 145.89629 | 17560 ft | 273 kts | 230° |
| 2026-05-06 23:40 | -37.18969 | 145.87670 | 17160 ft | 273 kts | 230° |
| 2026-05-06 23:40 | -37.20034 | 145.85725 | 16751 ft | 273 kts | 230° |
| 2026-05-06 23:40 | -37.21107 | 145.83763 | 16352 ft | 272 kts | 231° |
| 2026-05-06 23:40 | -37.22175 | 145.81808 | 15954 ft | 272 kts | 231° |
| 2026-05-06 23:41 | -37.23249 | 145.79844 | 15544 ft | 273 kts | 232° |
| 2026-05-06 23:41 | -37.24319 | 145.77882 | 15182 ft | 272 kts | 232° |
| 2026-05-06 23:41 | -37.25385 | 145.75927 | 14853 ft | 270 kts | 232° |
| 2026-05-06 23:41 | -37.26430 | 145.74011 | 14558 ft | 268 kts | 232° |
| 2026-05-06 23:42 | -37.27483 | 145.72079 | 14225 ft | 267 kts | 232° |
| 2026-05-06 23:42 | -37.28533 | 145.70152 | 13873 ft | 266 kts | 233° |
| 2026-05-06 23:42 | -37.29581 | 145.68226 | 13514 ft | 265 kts | 233° |
| 2026-05-06 23:42 | -37.30611 | 145.66344 | 13058 ft | 266 kts | 232° |
| 2026-05-06 23:43 | -37.31708 | 145.64431 | 12698 ft | 265 kts | 231° |
| 2026-05-06 23:43 | -37.32775 | 145.62592 | 12583 ft | 256 kts | 231° |
| 2026-05-06 23:43 | -37.33817 | 145.60798 | 12311 ft | 252 kts | 231° |
| 2026-05-06 23:43 | -37.34841 | 145.59034 | 11982 ft | 252 kts | 231° |
| 2026-05-06 23:44 | -37.35873 | 145.57252 | 11692 ft | 250 kts | 231° |
| 2026-05-06 23:44 | -37.36894 | 145.55487 | 11385 ft | 249 kts | 231° |
| 2026-05-06 23:44 | -37.37912 | 145.53724 | 11077 ft | 248 kts | 231° |
| 2026-05-06 23:44 | -37.38924 | 145.51968 | 10735 ft | 247 kts | 231° |
| 2026-05-06 23:45 | -37.39918 | 145.50242 | 10451 ft | 245 kts | 231° |
| 2026-05-06 23:45 | -37.40915 | 145.48512 | 10150 ft | 244 kts | 231° |
| 2026-05-06 23:45 | -37.41910 | 145.46784 | 9841 ft | 243 kts | 231° |
| 2026-05-06 23:45 | -37.42898 | 145.45066 | 9504 ft | 242 kts | 231° |
| 2026-05-06 23:46 | -37.43550 | 145.43931 | 9316 ft | 240 kts | 231° |
| 2026-05-06 23:46 | -37.44840 | 145.41685 | 8942 ft | 237 kts | 231° |
| 2026-05-06 23:46 | -37.45801 | 145.40014 | 8698 ft | 235 kts | 231° |
| 2026-05-06 23:46 | -37.46755 | 145.38351 | 8439 ft | 233 kts | 231° |
| 2026-05-06 23:47 | -37.47704 | 145.36697 | 8197 ft | 232 kts | 231° |
| 2026-05-06 23:47 | -37.48334 | 145.35601 | 8016 ft | 232 kts | 230° |
| 2026-05-06 23:47 | -37.49577 | 145.33433 | 7695 ft | 227 kts | 230° |
| 2026-05-06 23:47 | -37.50497 | 145.31827 | 7446 ft | 225 kts | 231° |
| 2026-05-06 23:48 | -37.51108 | 145.30762 | 7278 ft | 224 kts | 231° |
| 2026-05-06 23:48 | -37.52027 | 145.29160 | 7040 ft | 227 kts | 231° |
| 2026-05-06 23:48 | -37.52955 | 145.27538 | 6795 ft | 229 kts | 231° |
| 2026-05-06 23:48 | -37.53890 | 145.25904 | 6539 ft | 229 kts | 231° |
| 2026-05-06 23:49 | -37.54821 | 145.24277 | 6264 ft | 228 kts | 231° |
| 2026-05-06 23:49 | -37.55742 | 145.22665 | 6016 ft | 226 kts | 231° |
| 2026-05-06 23:49 | -37.56654 | 145.21067 | 5766 ft | 223 kts | 231° |
| 2026-05-06 23:49 | -37.57558 | 145.19483 | 5524 ft | 221 kts | 231° |
| 2026-05-06 23:50 | -37.58448 | 145.17921 | 5274 ft | 218 kts | 231° |
| 2026-05-06 23:50 | -37.60196 | 145.14857 | 4803 ft | 214 kts | 231° |
| 2026-05-06 23:50 | -37.61058 | 145.13343 | 4591 ft | 210 kts | 231° |
| 2026-05-06 23:51 | -37.61900 | 145.11866 | 4451 ft | 204 kts | 231° |
| 2026-05-06 23:51 | -37.62710 | 145.10447 | 4273 ft | 199 kts | 232° |
| 2026-05-06 23:51 | -37.63503 | 145.09057 | 4081 ft | 192 kts | 232° |
| 2026-05-06 23:51 | -37.64273 | 145.07707 | 3809 ft | 187 kts | 233° |
| 2026-05-06 23:52 | -37.65023 | 145.06391 | 3538 ft | 182 kts | 233° |
| 2026-05-06 23:52 | -37.65756 | 145.05104 | 3293 ft | 178 kts | 233° |
| 2026-05-06 23:52 | -37.66465 | 145.03859 | 3104 ft | 170 kts | 233° |
| 2026-05-06 23:52 | -37.67034 | 145.02587 | 2873 ft | 166 kts | 255° |
| 2026-05-06 23:53 | -37.66992 | 145.01142 | 2715 ft | 165 kts | 268° |
| 2026-05-06 23:53 | -37.67056 | 144.99736 | 2574 ft | 161 kts | 259° |
| 2026-05-06 23:53 | -37.67026 | 144.98311 | 2518 ft | 163 kts | 266° |
| 2026-05-06 23:53 | -37.66939 | 144.96893 | 2359 ft | 160 kts | 267° |
| 2026-05-06 23:54 | -37.66855 | 144.95527 | 2154 ft | 152 kts | 266° |
| 2026-05-06 23:54 | -37.66778 | 144.94250 | 1957 ft | 141 kts | 266° |
| 2026-05-06 23:54 | -37.66708 | 144.93042 | 1800 ft | 136 kts | 266° |
| 2026-05-06 23:54 | -37.66638 | 144.91836 | 1578 ft | 137 kts | 266° |
| 2026-05-06 23:55 | -37.66565 | 144.90651 | 1387 ft | 136 kts | 266° |
| 2026-05-06 23:55 | -37.66495 | 144.89462 | 1152 ft | 136 kts | 268° |
| 2026-05-06 23:55 | -37.66432 | 144.88276 | 973 ft | 135 kts | 270° |
| 2026-05-06 23:55 | -37.66367 | 144.87096 | 804 ft | 135 kts | 272° |
| 2026-05-06 23:56 | -37.66293 | 144.85903 | 612 ft | 136 kts | 272° |
| 2026-05-06 23:56 | -37.66222 | 144.84721 | 450 ft | 133 kts | 272° |
| 2026-05-06 23:56 | -37.66157 | 144.83622 | 408 ft | 105 kts | 274° |
| 2026-05-06 23:56 | -37.66120 | 144.82972 | 407 ft | 43 kts | 274° |
| 2026-05-06 23:57 | -37.66102 | 144.82663 | 401 ft | 34 kts | 274° |
| 2026-05-06 23:57 | -37.66088 | 144.82406 | 399 ft | 23 kts | 274° |
| 2026-05-06 23:57 | -37.66130 | 144.82255 | 397 ft | 18 kts | 217° |
| 2026-05-06 23:57 | -37.66252 | 144.82220 | 393 ft | 16 kts | 184° |
| 2026-05-06 23:58 | -37.66362 | 144.82263 | 387 ft | 19 kts | 133° |
| 2026-05-06 23:58 | -37.66406 | 144.82433 | 378 ft | 22 kts | 100° |
| 2026-05-06 23:58 | -37.66432 | 144.82617 | 383 ft | 21 kts | 99° |
| 2026-05-06 23:58 | -37.66447 | 144.82808 | 384 ft | 23 kts | 94° |
| 2026-05-06 23:59 | -37.66459 | 144.83011 | 389 ft | 23 kts | 94° |
| 2026-05-06 23:59 | -37.66470 | 144.83207 | 397 ft | 22 kts | 94° |
| 2026-05-06 23:59 | -37.66481 | 144.83398 | 402 ft | 21 kts | 94° |
| 2026-05-06 23:59 | -37.66492 | 144.83583 | 403 ft | 21 kts | 94° |
| 2026-05-07 00:00 | -37.66503 | 144.83760 | 403 ft | 20 kts | 94° |
| 2026-05-07 00:00 | -37.66513 | 144.83899 | 403 ft | 11 kts | 107° |
| 2026-05-07 00:00 | -37.66580 | 144.83944 | 400 ft | 13 kts | 172° |
| 2026-05-07 00:00 | -37.66683 | 144.83963 | 395 ft | 17 kts | 172° |
| 2026-05-07 00:01 | -37.66814 | 144.83988 | 390 ft | 20 kts | 171° |
| 2026-05-07 00:01 | -37.66959 | 144.84015 | 385 ft | 21 kts | 173° |
| 2026-05-07 00:01 | -37.67095 | 144.84040 | 381 ft | 19 kts | 172° |
| 2026-05-07 00:01 | -37.67192 | 144.84063 | 378 ft | 13 kts | 152° |
| 2026-05-07 00:02 | -37.67220 | 144.84160 | 378 ft | 12 kts | 85° |
| 2026-05-07 00:02 | -37.67211 | 144.84266 | 380 ft | 12 kts | 84° |
| 2026-05-07 00:02 | -37.67202 | 144.84369 | 382 ft | 12 kts | 84° |
| 2026-05-07 00:02 | -37.67205 | 144.84470 | 384 ft | 11 kts | 104° |
| 2026-05-07 00:03 | -37.67208 | 144.84563 | 385 ft | 8 kts | 82° |
| 2026-05-07 00:03 | -37.67201 | 144.84623 | 386 ft | 4 kts | 84° |
| 2026-05-07 00:03 | -37.67220 | 144.84650 | 386 ft | 5 kts | 158° |
| 2026-05-07 00:03 | -37.67253 | 144.84658 | 385 ft | 4 kts | 172° |
| 2026-05-07 00:04 | -37.67266 | 144.84660 | 385 ft | 0 kts | 172° |